Terminal Aerodrome Forecast
Issued by NWS

Home | Current Version | Previous Version | Graphics & Text | Print | Product List | Glossary On
Versions: 1 2 3 4 5 6 7 8 9 10 11 12 13 14 15 16 17 18
000
FTUS41 KCLE 191915 AAA
TAFFDY
TAF AMD
KFDY 191915Z 1919/2018 16005KT P6SM OVC008
     FM192000 12006KT P6SM BKN015
     FM200000 10005KT P6SM OVC100
     FM200500 09005KT 6SM BR OVC015
     FM200800 09007KT 5SM -RA BR OVC007
      TEMPO 2009/2013 2SM -RA BR
     FM201500 VRB06KT 5SM BR OVC005=

USA.gov is the U.S. government's official web portal to all federal, state and local government web resources and services.